Weather at Chicago Midway International Airport

Public forecast

Using degrees Fahrenheit for public forecast. Weather courtesy of forecast.io.

Current aviation weather report (METAR) for Chicago Midway International Airport

Retrieved 2021/05/06 06:53 UTC (39 minutes ago):

KMDW 060653Z 16005KT 10SM FEW075 BKN090 OVC110 11/M03 A3012 RMK AO2 SLP200 T01061033

Aviation forecast (TAF) for Chicago Midway International Airport

Retrieved 2021/05/06 06:36 UTC (56 minutes ago):

TAF KMDW 060532Z 0606/0712 17007KT P6SM BKN070 FM061100 14005KT P6SM -SHRA SCT015 OVC035 FM061400 08006KT 6SM -SHRA BR SCT010 OVC015 FM061700 36011KT P6SM SCT015 BKN025 FM062000 04010KT P6SM SCT035 BKN070 FM070300 27006KT P6SM SCT150